Time;durP1;ratioP1;P1;durP2;ratioP2;P2;SDS_P1;SDS_P2;PMS_P1;PMS_P2;Temp;Humidity;BMP_temperature;BMP_pressure;BME280_temperature;BME280_humidity;BME280_pressure;Samples;Min_cycle;Max_cycle;Signal;HPM_P1;HPM_P2
2022/10/18 00:00:55;;;;;;;15.43;9.10;;;9.50;99.90;;;;;;5060814;28;21028;-77
2022/10/18 00:03:22;;;;;;;16.33;10.63;;;9.40;99.90;;;;;;5061372;28;20980;-77
2022/10/18 00:05:51;;;;;;;12.63;8.87;;;9.40;99.90;;;;;;5052740;28;20873;-77
2022/10/18 00:08:19;;;;;;;12.97;9.07;;;9.40;99.90;;;;;;5062202;28;21397;-77
2022/10/18 00:10:47;;;;;;;15.47;10.00;;;9.40;99.90;;;;;;5062648;28;20572;-77
2022/10/18 00:13:14;;;;;;;13.10;9.13;;;9.50;99.90;;;;;;5059553;28;20553;-77
2022/10/18 00:15:48;;;;;;;17.10;8.63;;;9.40;99.90;;;;;;5059299;28;20476;-77
2022/10/18 00:18:15;;;;;;;11.77;9.30;;;9.30;99.90;;;;;;5064927;28;20462;-77
2022/10/18 00:20:42;;;;;;;14.80;8.43;;;9.30;99.90;;;;;;5071180;28;20464;-77
2022/10/18 00:23:11;;;;;;;14.23;8.87;;;9.40;99.90;;;;;;5065439;28;20544;-78
2022/10/18 00:25:38;;;;;;;14.67;9.73;;;9.50;99.90;;;;;;5058665;28;20517;-77
2022/10/18 00:28:05;;;;;;;12.47;9.43;;;9.50;99.90;;;;;;5064126;28;20542;-77
2022/10/18 00:30:32;;;;;;;17.40;10.73;;;9.60;99.90;;;;;;5061292;28;20575;-77
2022/10/18 00:32:59;;;;;;;13.33;9.83;;;9.80;99.90;;;;;;5057819;28;21332;-77
2022/10/18 00:35:26;;;;;;;12.50;9.67;;;9.80;99.90;;;;;;5061524;28;20550;-77
2022/10/18 00:37:53;;;;;;;15.23;10.40;;;9.90;99.90;;;;;;5053374;28;20499;-77
2022/10/18 00:40:21;;;;;;;15.53;9.73;;;9.90;99.90;;;;;;5063565;28;20483;-77
2022/10/18 00:42:48;;;;;;;13.00;10.00;;;9.90;99.90;;;;;;5059017;28;20491;-77
2022/10/18 00:45:19;;;;;;;13.40;9.43;;;9.90;99.90;;;;;;5062307;28;20464;-77
2022/10/18 00:47:50;;;;;;;11.00;7.73;;;9.90;99.90;;;;;;5060101;28;20517;-77
2022/10/18 00:50:17;;;;;;;12.73;7.57;;;9.80;99.90;;;;;;5062763;28;20515;-77
2022/10/18 00:52:46;;;;;;;9.97;6.57;;;9.80;99.90;;;;;;5060557;28;20491;-77
2022/10/18 00:55:14;;;;;;;13.10;7.87;;;9.70;99.90;;;;;;5057829;28;20529;-77
2022/10/18 00:57:44;;;;;;;17.57;8.23;;;9.60;99.90;;;;;;5058972;28;20937;-77
2022/10/18 01:00:12;;;;;;;10.83;6.60;;;9.50;99.90;;;;;;5062984;28;20491;-77
2022/10/18 01:02:41;;;;;;;11.73;7.73;;;9.40;99.90;;;;;;5063996;28;20464;-77
2022/10/18 01:05:11;;;;;;;9.47;6.67;;;9.40;99.90;;;;;;5062743;28;20523;-77
2022/10/18 01:07:58;;;;;;;15.73;7.63;;;9.20;99.90;;;;;;5063788;28;20857;-77
2022/10/18 01:10:30;;;;;;;13.67;7.40;;;9.20;99.90;;;;;;5063321;28;20537;-77
2022/10/18 01:13:10;;;;;;;18.50;5.87;;;9.20;99.90;;;;;;5063250;28;20496;-77
2022/10/18 01:15:48;;;;;;;14.80;9.30;;;9.10;99.90;;;;;;5061443;28;20928;-77
2022/10/18 01:18:23;;;;;;;12.10;7.43;;;9.20;99.90;;;;;;5061492;28;20529;-77
2022/10/18 01:21:03;;;;;;;12.83;8.60;;;9.20;99.90;;;;;;5061932;28;20509;-77
2022/10/18 01:23:47;;;;;;;15.40;7.60;;;9.20;99.90;;;;;;5065765;28;20529;-77
2022/10/18 01:26:26;;;;;;;20.40;9.80;;;9.20;99.90;;;;;;5062965;28;20526;-77
2022/10/18 01:29:08;;;;;;;18.50;8.73;;;9.20;99.90;;;;;;5055676;28;20524;-77
2022/10/18 01:31:42;;;;;;;46.43;13.00;;;9.10;99.90;;;;;;5064160;28;20552;-77
2022/10/18 01:34:11;;;;;;;29.93;10.97;;;9.10;99.90;;;;;;5065733;28;20466;-77
2022/10/18 01:36:42;;;;;;;18.63;9.67;;;9.10;99.90;;;;;;5061110;28;20878;-77
2022/10/18 01:39:12;;;;;;;23.77;11.77;;;9.10;99.90;;;;;;5065140;28;20509;-77
2022/10/18 01:41:43;;;;;;;22.23;11.40;;;9.10;99.90;;;;;;5055844;28;20573;-77
2022/10/18 01:44:14;;;;;;;13.67;11.13;;;9.10;99.90;;;;;;5055634;28;21048;-77
2022/10/18 01:46:44;;;;;;;16.87;11.20;;;9.00;99.90;;;;;;5061194;28;20568;-77
2022/10/18 01:49:10;;;;;;;20.43;12.60;;;9.00;99.90;;;;;;5056319;28;20600;-77
2022/10/18 01:51:37;;;;;;;16.97;12.43;;;9.10;99.90;;;;;;5060899;28;20499;-77
2022/10/18 01:54:05;;;;;;;17.10;12.63;;;9.10;99.90;;;;;;5061686;28;20560;-77
2022/10/18 01:56:37;;;;;;;18.17;11.53;;;9.00;99.90;;;;;;5057089;28;20503;-77
2022/10/18 01:59:35;;;;;;;18.23;11.50;;;9.00;99.90;;;;;;5059166;28;20999;-77
2022/10/18 02:02:09;;;;;;;17.40;11.30;;;9.10;99.90;;;;;;5057422;28;20487;-77
2022/10/18 02:04:44;;;;;;;19.27;12.30;;;9.20;99.90;;;;;;5064751;28;20455;-77
2022/10/18 02:07:20;;;;;;;9.40;7.77;;;9.50;99.90;;;;;;5060896;28;20491;-77
2022/10/18 02:09:51;;;;;;;10.40;5.97;;;9.50;99.90;;;;;;5050906;28;21107;-77
2022/10/18 02:12:20;;;;;;;12.47;8.00;;;9.40;99.90;;;;;;5060526;28;20488;-77
2022/10/18 02:14:49;;;;;;;8.40;6.40;;;9.40;99.90;;;;;;5059011;28;20491;-77
2022/10/18 02:17:20;;;;;;;11.80;7.70;;;9.30;99.90;;;;;;5058225;28;20491;-77
2022/10/18 02:19:50;;;;;;;14.37;6.73;;;9.30;99.90;;;;;;5060308;28;20496;-77
2022/10/18 02:22:18;;;;;;;10.13;6.70;;;9.30;99.90;;;;;;5065567;28;20467;-77
2022/10/18 02:24:51;;;;;;;8.37;6.43;;;9.20;99.90;;;;;;5063129;28;21081;-77
2022/10/18 02:27:18;;;;;;;11.00;5.97;;;9.20;99.90;;;;;;5067013;28;20455;-77
2022/10/18 02:29:46;;;;;;;12.93;6.57;;;9.20;99.90;;;;;;5061859;28;20522;-78
2022/10/18 02:32:19;;;;;;;9.03;7.70;;;9.10;99.90;;;;;;5062866;28;20920;-77
2022/10/18 02:34:53;;;;;;;8.50;5.90;;;9.00;99.90;;;;;;5061741;28;20487;-77
2022/10/18 02:37:20;;;;;;;12.40;7.53;;;9.10;99.90;;;;;;5063850;28;20997;-77
2022/10/18 02:39:50;;;;;;;72.00;16.53;;;8.90;99.90;;;;;;5061619;28;20545;-77
2022/10/18 02:42:17;;;;;;;81.80;21.53;;;8.90;99.90;;;;;;5054391;28;21304;-77
2022/10/18 02:44:44;;;;;;;68.30;21.93;;;8.90;99.90;;;;;;5055199;28;20499;-77
2022/10/18 02:47:12;;;;;;;87.63;22.87;;;8.90;99.90;;;;;;5062513;28;20553;-77
2022/10/18 02:49:41;;;;;;;132.00;29.57;;;9.00;99.90;;;;;;5060924;28;20515;-77
2022/10/18 02:52:08;;;;;;;40.57;18.70;;;9.00;99.90;;;;;;5056675;28;20552;-77
2022/10/18 02:54:34;;;;;;;77.63;25.97;;;9.00;99.90;;;;;;5060718;28;20467;-77
2022/10/18 02:57:01;;;;;;;111.03;26.33;;;8.90;99.90;;;;;;5062149;28;20503;-77
2022/10/18 02:59:28;;;;;;;33.23;14.37;;;8.80;99.90;;;;;;5059537;28;20460;-77
2022/10/18 03:01:55;;;;;;;123.60;30.87;;;8.80;99.90;;;;;;5056357;28;20494;-77
2022/10/18 03:04:22;;;;;;;104.93;27.37;;;8.70;99.90;;;;;;5057646;28;20588;-77
2022/10/18 03:06:51;;;;;;;28.07;18.30;;;8.70;99.90;;;;;;5051373;28;21119;-77
2022/10/18 03:09:18;;;;;;;31.73;16.20;;;8.60;99.90;;;;;;5059504;28;20598;-77
2022/10/18 03:11:44;;;;;;;89.83;23.07;;;8.40;99.90;;;;;;5058122;28;20487;-77
2022/10/18 03:14:11;;;;;;;117.70;24.87;;;8.50;99.90;;;;;;5063520;28;20491;-77
2022/10/18 03:16:39;;;;;;;35.23;13.30;;;8.50;99.90;;;;;;5060659;28;20552;-77
2022/10/18 03:19:06;;;;;;;25.97;13.40;;;8.40;99.90;;;;;;5061805;28;20451;-77
2022/10/18 03:21:33;;;;;;;157.20;35.60;;;8.40;99.90;;;;;;5064619;28;20566;-77
2022/10/18 03:24:02;;;;;;;44.50;14.37;;;8.30;99.90;;;;;;5058947;28;20522;-77
2022/10/18 03:26:29;;;;;;;59.00;21.40;;;8.40;99.90;;;;;;5059631;28;20565;-77
2022/10/18 03:28:56;;;;;;;50.00;19.70;;;8.40;99.90;;;;;;5058725;28;20576;-77
2022/10/18 03:31:23;;;;;;;53.07;17.40;;;8.30;99.90;;;;;;5060006;28;20581;-77
2022/10/18 03:33:50;;;;;;;150.50;30.00;;;8.30;99.90;;;;;;5062321;28;20464;-77
2022/10/18 03:36:17;;;;;;;13.90;12.50;;;8.30;99.90;;;;;;5056397;28;20560;-77
2022/10/18 03:38:44;;;;;;;14.00;12.60;;;8.20;99.90;;;;;;5057899;28;20944;-77
2022/10/18 03:41:12;;;;;;;15.07;12.33;;;8.00;99.90;;;;;;5063150;28;20491;-77
2022/10/18 03:43:39;;;;;;;14.63;11.87;;;7.90;99.90;;;;;;5062745;28;20496;-77
2022/10/18 03:46:06;;;;;;;31.13;13.37;;;7.80;99.90;;;;;;5048466;28;20489;-77
2022/10/18 03:48:33;;;;;;;27.10;13.50;;;7.90;99.90;;;;;;5059933;28;20456;-77
2022/10/18 03:51:00;;;;;;;43.67;14.60;;;7.80;99.90;;;;;;5061665;28;20572;-77
2022/10/18 03:53:27;;;;;;;31.43;14.10;;;7.80;99.90;;;;;;5060931;28;20467;-77
2022/10/18 03:55:54;;;;;;;38.13;16.97;;;8.00;99.90;;;;;;5057420;28;21281;-77
2022/10/18 03:58:23;;;;;;;63.90;21.03;;;8.10;99.90;;;;;;5060739;28;21021;-77
2022/10/18 04:00:50;;;;;;;55.07;16.53;;;8.00;99.90;;;;;;5056891;28;20487;-77
2022/10/18 04:03:18;;;;;;;46.23;15.57;;;8.00;99.90;;;;;;5060131;28;20463;-77
2022/10/18 04:05:46;;;;;;;56.30;16.87;;;7.90;99.90;;;;;;5058936;28;20495;-77
2022/10/18 04:08:12;;;;;;;85.30;22.33;;;7.90;99.90;;;;;;5057867;28;20459;-77
2022/10/18 04:10:39;;;;;;;27.10;14.00;;;7.90;99.90;;;;;;5059138;28;20518;-77
2022/10/18 04:13:07;;;;;;;29.03;13.10;;;7.80;99.90;;;;;;5061669;28;20506;-77
2022/10/18 04:15:36;;;;;;;56.63;19.63;;;7.70;99.90;;;;;;5057616;28;20467;-77
2022/10/18 04:18:03;;;;;;;20.90;13.10;;;7.70;99.90;;;;;;5056151;28;21045;-77
2022/10/18 04:20:29;;;;;;;56.40;19.10;;;7.60;99.90;;;;;;5061382;28;20487;-77
2022/10/18 04:22:57;;;;;;;11.80;10.70;;;7.70;99.90;;;;;;5059215;28;20517;-77
2022/10/18 04:25:24;;;;;;;25.60;15.60;;;7.70;99.90;;;;;;5060942;28;20563;-77
2022/10/18 04:27:51;;;;;;;56.77;19.70;;;7.60;99.90;;;;;;5059576;28;20582;-76
2022/10/18 04:30:18;;;;;;;131.70;32.33;;;7.60;99.90;;;;;;5060227;28;20561;-77
2022/10/18 04:32:46;;;;;;;18.07;13.97;;;7.60;99.90;;;;;;5056373;28;21291;-77
2022/10/18 04:35:13;;;;;;;43.63;17.30;;;7.60;99.90;;;;;;5061971;28;21204;-77
2022/10/18 04:37:40;;;;;;;13.83;12.47;;;7.80;99.90;;;;;;5054575;28;20529;-77
2022/10/18 04:40:09;;;;;;;44.83;16.40;;;7.80;99.90;;;;;;5055495;28;20589;-77
2022/10/18 04:42:36;;;;;;;39.47;15.60;;;7.80;99.90;;;;;;5057973;28;20474;-77
2022/10/18 04:45:03;;;;;;;21.80;14.60;;;7.90;99.90;;;;;;5057683;28;20541;-78
2022/10/18 04:47:30;;;;;;;82.33;27.10;;;8.10;99.90;;;;;;5060576;28;20814;-76
2022/10/18 04:49:58;;;;;;;96.23;24.57;;;8.20;99.90;;;;;;5055194;28;20491;-76
2022/10/18 04:52:25;;;;;;;74.90;26.67;;;8.20;99.90;;;;;;5062816;28;20471;-76
2022/10/18 04:54:52;;;;;;;53.57;21.80;;;8.20;99.90;;;;;;5061872;28;20542;-76
2022/10/18 04:57:19;;;;;;;113.07;31.47;;;8.20;99.90;;;;;;5054681;28;20849;-76
2022/10/18 04:59:45;;;;;;;128.37;31.77;;;8.20;99.90;;;;;;5058250;28;20567;-76
2022/10/18 05:02:12;;;;;;;41.63;17.30;;;8.30;99.90;;;;;;5064345;28;20939;-76
2022/10/18 05:04:39;;;;;;;29.17;16.97;;;8.30;99.90;;;;;;5061168;28;20487;-76
2022/10/18 05:07:08;;;;;;;50.60;17.20;;;8.20;99.90;;;;;;5063586;28;20944;-76
2022/10/18 05:09:35;;;;;;;103.87;29.80;;;8.20;99.90;;;;;;5060474;28;20634;-76
2022/10/18 05:12:02;;;;;;;81.60;23.83;;;8.20;99.90;;;;;;5064313;28;20549;-76
2022/10/18 05:14:29;;;;;;;34.20;17.30;;;8.30;99.90;;;;;;5060909;28;20552;-76
2022/10/18 05:16:56;;;;;;;21.97;14.87;;;8.40;99.90;;;;;;5065377;28;20467;-76
2022/10/18 05:19:23;;;;;;;51.13;22.13;;;8.50;99.90;;;;;;5063434;28;20499;-76
2022/10/18 05:21:50;;;;;;;91.97;27.30;;;8.50;99.90;;;;;;5060800;28;20593;-76
2022/10/18 05:24:18;;;;;;;44.20;16.20;;;8.50;99.90;;;;;;5058165;28;21038;-77
2022/10/18 05:26:46;;;;;;;56.83;21.87;;;8.50;99.90;;;;;;5061522;28;20452;-76
2022/10/18 05:29:13;;;;;;;67.30;23.20;;;8.50;99.90;;;;;;5060923;28;20491;-77
2022/10/18 05:31:40;;;;;;;39.00;16.83;;;8.60;99.90;;;;;;5052862;28;20901;-77
2022/10/18 05:34:07;;;;;;;57.80;20.90;;;8.60;99.90;;;;;;5051820;28;20465;-77
2022/10/18 05:36:34;;;;;;;31.17;14.27;;;8.60;99.90;;;;;;5051975;28;20464;-76
2022/10/18 05:39:03;;;;;;;28.93;14.53;;;8.40;99.90;;;;;;5052138;28;20521;-77
2022/10/18 05:41:32;;;;;;;56.57;18.33;;;8.40;99.90;;;;;;5060071;28;20460;-77
2022/10/18 05:44:02;;;;;;;24.60;14.57;;;8.40;99.90;;;;;;5056026;28;21021;-77
2022/10/18 05:46:29;;;;;;;16.77;12.63;;;8.40;99.90;;;;;;5059987;28;20464;-76
2022/10/18 05:48:56;;;;;;;31.37;14.90;;;8.50;99.90;;;;;;5062177;28;20452;-76
2022/10/18 05:51:23;;;;;;;26.20;14.00;;;8.70;99.90;;;;;;5061521;28;20519;-77
2022/10/18 05:53:50;;;;;;;34.30;14.30;;;8.70;99.90;;;;;;5050825;28;20522;-76
2022/10/18 05:56:17;;;;;;;39.97;17.87;;;8.70;99.90;;;;;;5063897;28;20621;-76
2022/10/18 05:58:50;;;;;;;90.07;24.30;;;8.70;99.90;;;;;;5064110;28;20581;-76
2022/10/18 06:01:18;;;;;;;23.07;12.60;;;8.70;99.90;;;;;;5056726;28;20466;-77
2022/10/18 06:03:44;;;;;;;27.33;14.57;;;8.60;99.90;;;;;;5049874;28;20572;-77
2022/10/18 06:06:13;;;;;;;19.00;12.60;;;8.60;99.90;;;;;;5054517;28;20468;-76
2022/10/18 06:08:41;;;;;;;20.77;15.20;;;8.70;99.90;;;;;;5059109;28;20487;-76
2022/10/18 06:11:10;;;;;;;64.10;22.43;;;8.80;99.90;;;;;;5058428;28;21047;-77
2022/10/18 06:13:40;;;;;;;26.97;15.27;;;8.80;99.90;;;;;;5062796;28;20518;-77
2022/10/18 06:16:10;;;;;;;53.77;19.77;;;8.80;99.90;;;;;;5063566;28;21041;-77
2022/10/18 06:18:38;;;;;;;52.83;20.63;;;8.90;99.90;;;;;;5058207;28;20495;-76
2022/10/18 06:21:05;;;;;;;26.93;14.90;;;8.90;99.90;;;;;;5057680;28;20465;-76
2022/10/18 06:23:32;;;;;;;17.60;13.77;;;8.90;99.90;;;;;;5049141;28;20480;-76
2022/10/18 06:26:00;;;;;;;26.00;16.10;;;9.00;99.90;;;;;;5059624;28;21252;-76
2022/10/18 06:28:27;;;;;;;41.90;15.80;;;9.10;99.90;;;;;;5057211;28;20526;-76
2022/10/18 06:30:55;;;;;;;16.23;12.97;;;9.10;99.90;;;;;;5057175;28;20953;-76
2022/10/18 06:33:23;;;;;;;266.40;43.27;;;9.10;99.90;;;;;;5055191;28;20492;-77
2022/10/18 06:36:00;;;;;;;34.23;14.07;;;9.10;99.90;;;;;;5056082;28;20452;-76
2022/10/18 06:38:28;;;;;;;31.67;13.90;;;9.20;99.90;;;;;;5059295;28;20529;-77
2022/10/18 06:40:56;;;;;;;28.73;13.10;;;9.40;99.90;;;;;;5064809;28;20789;-77
2022/10/18 06:43:23;;;;;;;30.60;12.10;;;9.40;99.90;;;;;;5051415;28;20941;-77
2022/10/18 06:45:51;;;;;;;53.37;17.60;;;9.30;99.90;;;;;;5053609;28;20602;-76
2022/10/18 06:48:19;;;;;;;35.50;14.03;;;9.30;99.90;;;;;;5051339;28;20554;-76
2022/10/18 06:50:53;;;;;;;66.93;21.57;;;9.30;99.90;;;;;;5043207;28;20518;-77
2022/10/18 06:53:20;;;;;;;86.83;18.57;;;9.40;99.90;;;;;;5036382;28;20563;-76
2022/10/18 06:55:47;;;;;;;97.30;20.00;;;9.60;99.90;;;;;;5038810;28;20475;-76
2022/10/18 06:58:13;;;;;;;76.37;18.80;;;9.70;99.90;;;;;;5040238;28;20467;-77
2022/10/18 07:00:41;;;;;;;28.00;10.57;;;9.70;99.90;;;;;;5040376;28;21165;-77
2022/10/18 07:03:08;;;;;;;58.67;14.50;;;9.60;99.90;;;;;;5037394;28;21248;-77
2022/10/18 07:05:34;;;;;;;65.23;16.57;;;9.70;99.90;;;;;;5053183;28;20526;-76
2022/10/18 07:08:03;;;;;;;21.67;10.90;;;9.70;99.90;;;;;;5059813;28;20447;-76
2022/10/18 07:10:30;;;;;;;42.03;14.60;;;9.90;99.90;;;;;;5058012;28;20878;-76
2022/10/18 07:12:57;;;;;;;79.27;16.20;;;9.90;99.90;;;;;;5053570;28;20474;-76
2022/10/18 07:15:24;;;;;;;41.63;14.63;;;9.70;99.90;;;;;;5064134;28;20521;-76
2022/10/18 07:17:51;;;;;;;43.83;12.47;;;9.80;99.90;;;;;;5061349;28;20484;-76
2022/10/18 07:20:18;;;;;;;73.37;15.60;;;9.90;99.90;;;;;;5062397;28;20893;-76
2022/10/18 07:22:45;;;;;;;63.23;14.40;;;10.10;99.90;;;;;;5054578;28;20461;-76
2022/10/18 07:25:13;;;;;;;216.57;35.10;;;10.10;99.90;;;;;;5059207;28;20944;-76
2022/10/18 07:27:42;;;;;;;128.30;20.57;;;10.10;99.90;;;;;;5057559;28;20931;-76
2022/10/18 07:30:11;;;;;;;76.30;19.33;;;10.30;99.90;;;;;;5060520;28;20506;-77
2022/10/18 07:32:38;;;;;;;79.97;20.37;;;10.50;99.90;;;;;;5053697;28;20578;-77
2022/10/18 07:35:06;;;;;;;60.00;19.40;;;10.70;99.90;;;;;;5048069;28;20487;-77
2022/10/18 07:37:33;;;;;;;50.57;14.30;;;10.60;99.90;;;;;;5051359;28;20555;-77
2022/10/18 07:40:00;;;;;;;306.93;61.83;;;10.60;99.90;;;;;;5047419;28;20506;-77
2022/10/18 07:42:28;;;;;;;55.90;16.93;;;10.70;99.90;;;;;;5048078;28;20611;-77
2022/10/18 07:44:55;;;;;;;43.13;14.63;;;10.80;99.90;;;;;;5048646;28;20977;-78
2022/10/18 07:47:22;;;;;;;45.33;16.90;;;11.00;99.90;;;;;;5048843;28;20465;-77
2022/10/18 07:49:49;;;;;;;128.20;29.63;;;10.90;99.90;;;;;;5052590;28;20460;-77
2022/10/18 07:52:15;;;;;;;119.97;26.90;;;11.00;99.90;;;;;;5049744;28;20525;-77
2022/10/18 07:54:42;;;;;;;252.33;43.63;;;11.20;99.90;;;;;;5049205;28;20489;-77
2022/10/18 07:57:09;;;;;;;373.47;54.73;;;11.30;99.90;;;;;;5049712;28;20489;-76
2022/10/18 07:59:38;;;;;;;47.80;15.77;;;11.30;99.90;;;;;;5054387;28;20896;-77
2022/10/18 08:02:05;;;;;;;48.07;14.87;;;11.30;99.90;;;;;;5049829;28;21007;-78
2022/10/18 08:04:31;;;;;;;185.20;29.67;;;11.30;99.90;;;;;;5057963;28;20485;-77
2022/10/18 08:06:58;;;;;;;126.03;21.33;;;11.20;99.90;;;;;;5053894;28;20481;-77
2022/10/18 08:09:26;;;;;;;47.63;14.30;;;11.20;99.90;;;;;;5061188;28;20532;-77
2022/10/18 08:11:53;;;;;;;131.20;20.63;;;11.30;99.90;;;;;;5055973;28;21079;-77
2022/10/18 08:14:20;;;;;;;84.43;15.73;;;11.40;99.90;;;;;;5052821;28;20493;-77
2022/10/18 08:16:48;;;;;;;55.93;14.23;;;11.50;99.90;;;;;;5052931;28;20536;-77
2022/10/18 08:19:15;;;;;;;36.80;10.80;;;11.40;99.90;;;;;;5046895;28;20562;-77
2022/10/18 08:21:42;;;;;;;37.03;11.77;;;11.50;99.90;;;;;;5056309;28;20455;-77
2022/10/18 08:24:09;;;;;;;116.73;19.27;;;11.40;99.90;;;;;;5055048;28;20547;-77
2022/10/18 08:26:35;;;;;;;40.33;13.07;;;11.50;99.90;;;;;;5061386;28;20466;-77
2022/10/18 08:29:02;;;;;;;85.40;16.50;;;11.50;99.90;;;;;;5063661;28;20597;-77
2022/10/18 08:31:29;;;;;;;92.03;16.90;;;11.60;99.90;;;;;;5062321;28;20516;-77
2022/10/18 08:33:58;;;;;;;74.37;20.50;;;11.60;99.90;;;;;;5051005;28;20474;-77
2022/10/18 08:36:26;;;;;;;124.13;23.50;;;11.80;99.90;;;;;;5058253;28;20474;-77
2022/10/18 08:38:53;;;;;;;135.77;21.50;;;11.70;99.90;;;;;;5057643;28;20514;-77
2022/10/18 08:41:41;;;;;;;71.17;18.80;;;11.90;99.90;;;;;;5055870;28;20496;-77
2022/10/18 08:44:17;;;;;;;48.47;18.13;;;12.00;99.90;;;;;;5051980;28;20539;-76
2022/10/18 08:46:46;;;;;;;65.43;16.07;;;11.90;99.90;;;;;;5061594;28;20473;-77
2022/10/18 08:49:25;;;;;;;64.10;16.30;;;12.10;99.90;;;;;;5060239;28;20521;-79
2022/10/18 08:51:54;;;;;;;108.30;25.10;;;12.10;99.90;;;;;;5051064;28;20479;-79
2022/10/18 08:54:27;;;;;;;32.73;13.90;;;12.30;99.90;;;;;;5052720;28;21168;-79
2022/10/18 08:56:59;;;;;;;19.53;13.30;;;12.50;99.90;;;;;;5052392;28;20564;-80
2022/10/18 08:59:31;;;;;;;16.07;14.40;;;12.40;99.90;;;;;;5052474;28;20465;-78
2022/10/18 09:02:10;;;;;;;44.50;15.73;;;12.40;99.90;;;;;;5052326;28;20510;-78
2022/10/18 09:04:48;;;;;;;15.87;14.23;;;12.70;99.90;;;;;;5053202;28;20555;-78
2022/10/18 09:07:45;;;;;;;14.53;13.13;;;12.90;99.90;;;;;;5053219;28;20465;-78
2022/10/18 09:10:23;;;;;;;14.70;13.30;;;13.20;99.90;;;;;;5055028;28;20502;-79
2022/10/18 09:13:10;;;;;;;12.30;11.30;;;13.30;99.90;;;;;;5054918;28;20584;-79
2022/10/18 09:15:43;;;;;;;13.70;12.57;;;13.30;99.90;;;;;;5051923;28;20959;-79
2022/10/18 09:18:28;;;;;;;13.80;12.10;;;13.50;99.90;;;;;;5054204;28;20494;-79
2022/10/18 09:20:58;;;;;;;13.20;11.87;;;13.50;99.90;;;;;;5057607;28;20480;-79
2022/10/18 09:23:46;;;;;;;14.60;13.10;;;13.60;99.90;;;;;;5060117;28;20943;-79
2022/10/18 09:26:17;;;;;;;14.50;13.10;;;13.60;99.90;;;;;;5054734;28;20498;-79
2022/10/18 09:29:01;;;;;;;13.30;11.93;;;13.70;99.90;;;;;;5053967;28;21049;-78
2022/10/18 09:31:36;;;;;;;14.60;13.30;;;13.60;99.90;;;;;;5057802;28;20466;-79
2022/10/18 09:34:09;;;;;;;13.00;11.57;;;13.90;99.90;;;;;;5055710;28;20525;-79
2022/10/18 09:36:38;;;;;;;11.53;10.37;;;13.90;99.90;;;;;;5054280;28;20463;-79
2022/10/18 09:39:11;;;;;;;13.10;11.30;;;14.20;99.90;;;;;;5057174;28;20463;-79
2022/10/18 09:41:44;;;;;;;13.53;12.30;;;14.10;99.90;;;;;;5060680;28;20457;-79
2022/10/18 09:44:17;;;;;;;11.37;10.37;;;14.30;99.90;;;;;;5057271;28;20579;-79
2022/10/18 09:46:49;;;;;;;12.07;10.97;;;14.30;99.90;;;;;;5059281;28;20500;-78
2022/10/18 09:49:19;;;;;;;10.60;9.70;;;14.60;99.90;;;;;;5060148;28;20565;-78
2022/10/18 09:51:50;;;;;;;6.97;6.20;;;14.70;99.90;;;;;;5054319;28;20579;-78
2022/10/18 09:54:25;;;;;;;8.27;7.30;;;14.80;99.90;;;;;;5054835;28;20517;-78
2022/10/18 09:56:57;;;;;;;7.77;7.07;;;15.10;99.90;;;;;;5061761;28;20460;-79
2022/10/18 09:59:33;;;;;;;6.83;6.23;;;15.20;99.90;;;;;;5056017;28;20465;-78
2022/10/18 10:02:00;;;;;;;6.80;6.17;;;15.30;99.90;;;;;;5057785;28;20830;-78
2022/10/18 10:04:28;;;;;;;8.10;7.40;;;15.50;99.90;;;;;;5056660;28;20467;-79
2022/10/18 10:06:59;;;;;;;8.40;7.70;;;15.50;99.90;;;;;;5054949;28;20493;-78
2022/10/18 10:09:28;;;;;;;6.93;6.17;;;15.50;99.90;;;;;;5059357;28;20552;-78
2022/10/18 10:11:56;;;;;;;6.20;5.60;;;15.40;99.90;;;;;;5062607;28;20984;-78
2022/10/18 10:14:25;;;;;;;6.97;6.30;;;15.40;99.90;;;;;;5055555;28;20462;-79
2022/10/18 10:16:54;;;;;;;6.00;5.50;;;15.70;99.90;;;;;;5064327;28;20555;-78
2022/10/18 10:19:26;;;;;;;7.47;6.77;;;15.70;99.90;;;;;;5055017;28;20467;-78
2022/10/18 10:22:02;;;;;;;6.53;5.30;;;15.90;99.90;;;;;;5066364;28;20516;-78
2022/10/18 10:24:46;;;;;;;5.63;4.80;;;16.00;99.90;;;;;;5063844;28;20516;-78
2022/10/18 10:27:20;;;;;;;8.27;5.47;;;16.10;99.90;;;;;;5053580;28;20497;-78
2022/10/18 10:29:57;;;;;;;6.17;5.57;;;16.10;99.90;;;;;;5058954;28;20491;-76
2022/10/18 10:32:28;;;;;;;6.73;5.90;;;16.40;99.90;;;;;;5063256;28;20491;-76
2022/10/18 10:34:54;;;;;;;8.93;5.60;;;16.50;99.90;;;;;;5062680;28;20850;-76
2022/10/18 10:37:32;;;;;;;6.40;5.67;;;16.60;99.90;;;;;;5063035;28;20543;-76
2022/10/18 10:40:12;;;;;;;7.67;5.67;;;16.70;99.90;;;;;;5060726;28;20470;-76
2022/10/18 10:42:57;;;;;;;6.40;5.73;;;16.80;99.90;;;;;;5054518;28;20545;-78
2022/10/18 10:45:27;;;;;;;6.03;5.43;;;16.80;99.90;;;;;;5054508;28;20503;-78
2022/10/18 10:48:01;;;;;;;6.00;5.40;;;16.90;99.90;;;;;;5054784;28;20491;-78
2022/10/18 10:50:29;;;;;;;6.50;5.27;;;17.00;99.90;;;;;;5062020;28;20490;-76
2022/10/18 10:52:59;;;;;;;6.30;4.90;;;17.00;99.90;;;;;;5066380;28;20482;-76
2022/10/18 10:55:33;;;;;;;5.80;5.30;;;17.10;99.90;;;;;;5063191;28;20904;-76
2022/10/18 10:58:00;;;;;;;6.20;5.60;;;17.30;99.90;;;;;;5055836;28;20464;-75
2022/10/18 11:00:39;;;;;;;6.00;5.40;;;17.50;99.90;;;;;;5055973;28;20505;-78
2022/10/18 11:03:10;;;;;;;6.90;4.87;;;17.50;99.90;;;;;;5059688;28;20785;-78
2022/10/18 11:05:44;;;;;;;7.07;5.50;;;17.50;99.90;;;;;;5060147;28;20452;-78
2022/10/18 11:08:15;;;;;;;5.00;4.37;;;17.60;99.90;;;;;;5058090;28;20525;-78
2022/10/18 11:11:02;;;;;;;5.60;4.80;;;17.60;99.90;;;;;;5052968;28;20980;-77
2022/10/18 11:13:42;;;;;;;5.87;4.40;;;17.60;99.90;;;;;;5052577;28;20541;-78
2022/10/18 11:16:16;;;;;;;6.10;5.40;;;17.70;99.90;;;;;;5058231;28;20525;-78
2022/10/18 11:18:48;;;;;;;8.93;5.10;;;17.70;99.90;;;;;;5060715;28;20495;-78
2022/10/18 11:21:19;;;;;;;7.80;4.80;;;17.80;99.90;;;;;;5057306;28;21030;-78
2022/10/18 11:23:48;;;;;;;5.50;4.83;;;17.90;99.90;;;;;;5053128;28;20484;-78
2022/10/18 11:26:30;;;;;;;7.50;6.10;;;18.00;99.90;;;;;;5056500;28;20487;-78
2022/10/18 11:29:19;;;;;;;7.13;5.97;;;18.00;99.90;;;;;;5057612;28;20507;-78
2022/10/18 11:31:56;;;;;;;5.40;4.93;;;18.10;99.90;;;;;;5058002;28;20545;-78
2022/10/18 11:34:41;;;;;;;5.40;4.87;;;18.10;99.90;;;;;;5054248;28;20475;-78
2022/10/18 11:37:22;;;;;;;6.73;5.73;;;18.30;99.90;;;;;;5060065;28;21059;-78
2022/10/18 11:40:03;;;;;;;6.27;5.67;;;18.20;99.90;;;;;;5055773;28;20465;-78
2022/10/18 11:42:35;;;;;;;10.13;5.73;;;18.20;99.90;;;;;;5057832;28;20562;-78
2022/10/18 11:45:17;;;;;;;6.17;5.03;;;18.30;99.90;;;;;;5059212;28;20957;-78
2022/10/18 11:47:51;;;;;;;6.43;5.87;;;18.50;99.90;;;;;;5054397;28;20487;-79
2022/10/18 11:50:28;;;;;;;4.60;4.20;;;18.50;99.90;;;;;;5051499;28;20461;-78
2022/10/18 11:53:05;;;;;;;5.43;4.83;;;18.60;99.90;;;;;;5057729;28;20590;-78
2022/10/18 11:55:55;;;;;;;8.40;5.50;;;18.60;99.90;;;;;;5059023;28;20461;-78
2022/10/18 11:58:42;;;;;;;6.43;5.63;;;18.60;99.90;;;;;;5056180;28;20463;-79
2022/10/18 12:01:22;;;;;;;5.67;5.17;;;18.70;99.90;;;;;;5057475;28;20533;-78
2022/10/18 12:03:58;;;;;;;7.83;6.13;;;18.80;99.90;;;;;;5057529;28;20447;-78
2022/10/18 12:06:30;;;;;;;6.50;5.90;;;18.80;99.90;;;;;;5050397;28;21089;-78
2022/10/18 12:09:02;;;;;;;5.57;4.70;;;18.90;99.90;;;;;;5049185;28;20986;-78
2022/10/18 12:11:33;;;;;;;6.67;6.03;;;18.90;99.90;;;;;;5048760;28;20488;-78
2022/10/18 12:14:02;;;;;;;6.30;5.80;;;19.00;99.90;;;;;;5050441;28;20564;-78
2022/10/18 12:16:34;;;;;;;6.50;6.00;;;19.10;99.90;;;;;;5054580;28;20668;-78
2022/10/18 12:19:04;;;;;;;7.47;6.43;;;19.40;99.90;;;;;;5052946;28;20534;-78
2022/10/18 12:21:33;;;;;;;9.43;4.60;;;19.40;99.90;;;;;;5057824;28;20528;-77
2022/10/18 12:24:03;;;;;;;6.70;5.37;;;19.40;99.90;;;;;;5061334;28;20573;-77
2022/10/18 12:26:33;;;;;;;6.63;6.10;;;19.40;99.90;;;;;;5062652;28;21129;-78
2022/10/18 12:29:13;;;;;;;5.90;5.30;;;19.50;99.90;;;;;;5058326;28;20583;-78
2022/10/18 12:31:46;;;;;;;6.40;5.10;;;19.70;99.90;;;;;;5062540;28;20581;-78
2022/10/18 12:34:31;;;;;;;7.80;5.37;;;19.80;99.90;;;;;;5050624;28;20520;-77
2022/10/18 12:37:30;;;;;;;9.83;8.93;;;19.80;99.90;;;;;;5054436;28;20498;-77
2022/10/18 12:40:01;;;;;;;7.87;6.30;;;19.70;99.90;;;;;;5056336;28;20458;-78
2022/10/18 12:42:32;;;;;;;7.03;6.43;;;19.50;99.90;;;;;;5050794;28;20490;-78
2022/10/18 12:45:04;;;;;;;7.63;5.53;;;19.60;99.90;;;;;;5055858;28;20469;-78
2022/10/18 12:47:32;;;;;;;6.27;5.67;;;19.70;99.90;;;;;;5059137;28;20475;-77
2022/10/18 12:50:02;;;;;;;6.50;5.90;;;19.60;99.90;;;;;;5060014;28;20483;-77
2022/10/18 12:52:33;;;;;;;5.97;5.47;;;19.70;99.90;;;;;;5058894;28;20463;-77
2022/10/18 12:55:27;;;;;;;5.53;5.10;;;19.70;99.90;;;;;;5057239;28;20560;-77